EGKB/BQH METAR and TAF weather

Enter ICAO airport designator
Station Type Date Time Source
EGKB METAR 2020/02/24 22:20 UTC NOAA

EGKB 242220Z 26014KT 230V290 CAVOK 07/04 Q1005


Station Type Date Time Source
EGKB Decoded METAR 2020/02/24 22:20 UTC NOAA

Biggin Hill , United Kingdom (EGKB) 51-19N 000-02E
Feb 24, 2020 - 05:20 PM EST / 2020.02.24 2220 UTC
Wind: from the W (260 degrees) at 16 MPH (14 KT) (direction variable):0
Visibility: greater than 7 mile(s):0
Temperature: 44 F (7 C)
Dew Point: 39 F (4 C)
Relative Humidity: 81%
Pressure (altimeter): 29.68 in. Hg (1005 hPa)
ob: EGKB 242220Z 26014KT 230V290 CAVOK 07/04 Q1005
cycle: 22

Station Type Date Time Source
EGKB TAF 2019/07/13 18:09 UTC NOAA

TAF EGKB 131706Z 1318/1422 03009KT 9999 SCT040 PROB30
TEMPO 1318/1320 8000 -SHRA

Example: see airport list